Time;durP1;ratioP1;P1;durP2;ratioP2;P2;SDS_P1;SDS_P2;PMS_P1;PMS_P2;Temp;Humidity;BMP_temperature;BMP_pressure;BME280_temperature;BME280_humidity;BME280_pressure;Samples;Min_cycle;Max_cycle;Signal;HPM_P1;HPM_P2
2021/04/05 04:15:42;;;;;;;2.17;0.82;;;3.50;99.90;;;;;;5091440;28;20079;-66
2021/04/05 04:18:09;;;;;;;1.52;1.10;;;3.50;99.90;;;;;;5091903;28;20028;-66
2021/04/05 04:20:36;;;;;;;1.77;0.80;;;3.50;99.90;;;;;;5091894;28;20024;-67
2021/04/05 04:23:02;;;;;;;2.30;0.82;;;3.50;99.90;;;;;;5091862;28;20064;-66
2021/04/05 04:25:28;;;;;;;0.88;0.65;;;3.50;99.90;;;;;;5091927;28;20047;-66
2021/04/05 04:27:54;;;;;;;0.98;0.70;;;3.50;99.90;;;;;;5092084;28;20055;-66
2021/04/05 04:30:33;;;;;;;1.33;0.60;;;3.50;99.90;;;;;;5091909;28;20511;-67
2021/04/05 04:33:01;;;;;;;2.50;0.60;;;3.40;99.90;;;;;;5091740;28;20099;-65
2021/04/05 04:35:27;;;;;;;0.77;0.60;;;3.40;99.90;;;;;;5092047;28;20024;-63
2021/04/05 04:37:53;;;;;;;1.25;0.60;;;3.40;99.90;;;;;;5073716;28;20112;-66
2021/04/05 04:40:26;;;;;;;0.98;0.47;;;4.60;99.90;;;;;;5091473;28;20503;-68
2021/04/05 04:42:56;;;;;;;0.98;0.40;;;4.40;99.90;;;;;;5091860;28;20036;-66
2021/04/05 04:45:22;;;;;;;0.43;0.43;;;4.10;99.90;;;;;;5091770;28;20020;-66
2021/04/05 04:47:51;;;;;;;0.50;0.50;;;3.90;99.90;;;;;;5091954;28;20024;-67
2021/04/05 04:50:18;;;;;;;0.65;0.50;;;3.70;99.90;;;;;;5091991;28;20016;-67
2021/04/05 04:52:43;;;;;;;0.95;0.40;;;3.50;99.90;;;;;;5091897;28;20020;-67
2021/04/05 04:55:10;;;;;;;0.50;0.50;;;3.50;99.90;;;;;;5090934;28;20498;-66
2021/04/05 04:57:36;;;;;;;0.45;0.40;;;3.50;99.90;;;;;;5091586;28;20024;-70
2021/04/05 05:00:07;;;;;;;0.50;0.50;;;3.40;99.90;;;;;;5091015;28;20506;-70
2021/04/05 05:02:35;;;;;;;0.40;0.40;;;3.40;99.90;;;;;;5088520;28;20111;-67
2021/04/05 05:05:03;;;;;;;0.60;0.60;;;3.40;99.90;;;;;;5088849;28;20028;-68
2021/04/05 05:07:32;;;;;;;0.65;0.50;;;3.40;99.90;;;;;;5090530;28;20035;-68
2021/04/05 05:09:58;;;;;;;3.03;0.50;;;3.30;99.90;;;;;;5092747;28;20024;-68
2021/04/05 05:12:24;;;;;;;0.43;0.43;;;3.30;99.90;;;;;;5094834;28;20027;-69
2021/04/05 05:14:50;;;;;;;0.70;0.50;;;3.20;99.90;;;;;;5094671;28;20086;-69
2021/04/05 05:17:17;;;;;;;1.67;0.60;;;3.20;99.90;;;;;;5095058;28;20051;-68
2021/04/05 05:19:44;;;;;;;0.70;0.50;;;3.10;99.90;;;;;;5094903;28;20479;-68
2021/04/05 05:22:15;;;;;;;0.70;0.60;;;3.10;99.90;;;;;;5094836;28;20396;-68
2021/04/05 05:24:45;;;;;;;0.57;0.57;;;3.00;99.90;;;;;;5095062;28;20024;-69
2021/04/05 05:27:12;;;;;;;2.17;0.68;;;3.00;99.90;;;;;;5094935;28;20027;-66
2021/04/05 05:29:41;;;;;;;0.68;0.68;;;3.00;99.90;;;;;;5094951;28;20023;-69
2021/04/05 05:32:08;;;;;;;0.60;0.60;;;3.00;99.90;;;;;;5094786;28;20020;-65
2021/04/05 05:34:34;;;;;;;0.70;0.50;;;3.00;99.90;;;;;;5094838;28;20028;-67
2021/04/05 05:37:01;;;;;;;1.08;0.70;;;3.10;99.90;;;;;;5094675;28;20511;-67
2021/04/05 05:39:27;;;;;;;0.80;0.65;;;3.10;99.90;;;;;;5094554;28;20036;-66
2021/04/05 05:42:16;;;;;;;1.77;0.60;;;3.10;99.90;;;;;;5094638;28;20036;-67
2021/04/05 05:45:02;;;;;;;1.00;0.50;;;3.10;99.90;;;;;;5094739;28;20024;-67
2021/04/05 05:47:47;;;;;;;1.02;0.70;;;3.10;99.90;;;;;;5094923;28;20055;-67
2021/04/05 05:50:44;;;;;;;1.48;0.65;;;3.10;99.90;;;;;;5094422;28;20020;-66
2021/04/05 05:53:19;;;;;;;0.70;0.50;;;3.10;99.90;;;;;;5094396;28;20070;-67
2021/04/05 05:56:15;;;;;;;1.05;0.60;;;3.00;99.90;;;;;;5094552;28;20021;-66
2021/04/05 05:59:23;;;;;;;0.65;0.63;;;3.00;99.90;;;;;;5094677;28;20051;-65
2021/04/05 06:01:58;;;;;;;0.60;0.60;;;3.00;99.90;;;;;;5060167;28;20083;-67
2021/04/05 06:04:58;;;;;;;1.60;0.75;;;3.00;99.90;;;;;;5094425;28;20020;-67
2021/04/05 06:07:23;;;;;;;0.98;0.63;;;2.90;99.90;;;;;;5094470;28;20097;-66
2021/04/05 06:10:04;;;;;;;0.70;0.70;;;2.90;99.90;;;;;;5094241;28;20114;-68
2021/04/05 06:13:03;;;;;;;0.68;0.60;;;2.90;99.90;;;;;;5094253;28;20115;-68
2021/04/05 06:15:30;;;;;;;0.60;0.60;;;2.90;99.90;;;;;;5093995;28;20525;-67
2021/04/05 06:18:20;;;;;;;0.60;0.60;;;2.90;99.90;;;;;;5094459;28;20097;-67
2021/04/05 06:20:52;;;;;;;1.63;0.90;;;2.80;99.90;;;;;;5093615;28;20059;-67
2021/04/05 06:23:37;;;;;;;1.63;0.90;;;2.80;99.90;;;;;;5093950;28;20032;-69
2021/04/05 06:26:33;;;;;;;2.20;0.80;;;2.80;99.90;;;;;;5093754;28;20020;-67
2021/04/05 06:28:59;;;;;;;1.52;0.80;;;2.80;99.90;;;;;;5093802;28;20024;-67
2021/04/05 06:31:50;;;;;;;1.42;0.90;;;2.80;99.90;;;;;;5093917;28;20052;-67
2021/04/05 06:34:34;;;;;;;1.80;0.80;;;3.10;99.90;;;;;;5093839;28;20445;-71
2021/04/05 06:37:05;;;;;;;2.05;0.70;;;3.80;99.90;;;;;;5093658;28;20053;-67
2021/04/05 06:39:35;;;;;;;3.53;0.90;;;3.60;99.90;;;;;;5093709;28;20077;-67
2021/04/05 06:42:17;;;;;;;1.38;0.75;;;3.30;99.90;;;;;;5093422;28;20028;-66
2021/04/05 06:44:57;;;;;;;2.92;0.90;;;3.20;99.90;;;;;;5093539;28;20036;-68
2021/04/05 06:47:48;;;;;;;2.67;1.00;;;3.10;99.90;;;;;;5092764;28;20028;-66
2021/04/05 06:50:14;;;;;;;1.35;0.77;;;3.00;99.90;;;;;;5073385;28;20060;-67
2021/04/05 06:53:07;;;;;;;2.20;1.10;;;2.90;99.90;;;;;;5093280;28;20177;-67
2021/04/05 06:55:47;;;;;;;1.48;0.70;;;2.90;99.90;;;;;;5093040;28;20024;-66
2021/04/05 06:58:24;;;;;;;2.95;0.77;;;2.90;99.90;;;;;;5093304;28;20422;-66
2021/04/05 07:01:08;;;;;;;1.02;0.70;;;2.90;99.90;;;;;;5092460;28;20071;-65
2021/04/05 07:03:56;;;;;;;1.75;0.80;;;2.80;99.90;;;;;;5090812;28;20384;-66
2021/04/05 07:06:50;;;;;;;3.58;1.20;;;2.80;99.90;;;;;;5087334;28;20100;-65
2021/04/05 07:09:42;;;;;;;2.97;1.20;;;2.80;99.90;;;;;;5084096;28;20036;-65
2021/04/05 07:12:39;;;;;;;3.05;0.90;;;2.80;99.90;;;;;;5092375;28;20028;-68
2021/04/05 07:15:27;;;;;;;1.25;0.85;;;2.70;99.90;;;;;;5079058;28;20153;-64
2021/04/05 07:18:48;;;;;;;2.35;0.82;;;2.70;99.90;;;;;;5080569;28;20046;-64
2021/04/05 07:21:35;;;;;;;1.83;1.10;;;2.60;99.90;;;;;;5010043;28;20077;-62
2021/04/05 07:24:19;;;;;;;1.98;0.82;;;2.70;99.90;;;;;;5076563;28;20024;-63
2021/04/05 07:27:17;;;;;;;1.58;0.80;;;2.80;99.90;;;;;;5099975;28;20020;-64
2021/04/05 07:30:05;;;;;;;3.35;1.00;;;3.80;99.90;;;;;;5061760;28;20063;-64
2021/04/05 07:33:02;;;;;;;2.47;1.00;;;4.60;99.90;;;;;;5092008;28;20031;-64
2021/04/05 07:35:34;;;;;;;0.75;0.75;;;4.70;99.90;;;;;;5092238;28;20050;-65
2021/04/05 07:38:18;;;;;;;2.22;0.88;;;5.00;99.90;;;;;;5075857;28;20059;-65
2021/04/05 07:41:02;;;;;;;2.22;0.80;;;5.40;99.90;;;;;;5091151;28;20020;-64
2021/04/05 07:44:04;;;;;;;0.60;0.60;;;5.60;99.90;;;;;;5091031;28;20089;-64
2021/04/05 07:47:04;;;;;;;1.00;0.52;;;5.60;99.90;;;;;;5090545;28;20024;-64
2021/04/05 07:49:36;;;;;;;0.98;0.60;;;5.80;99.90;;;;;;5092483;28;20016;-65
2021/04/05 07:52:17;;;;;;;0.95;0.65;;;6.10;99.90;;;;;;5091842;28;20016;-66
2021/04/05 07:54:43;;;;;;;1.52;0.60;;;6.10;99.90;;;;;;5092107;28;20024;-65
2021/04/05 07:57:54;;;;;;;0.75;0.60;;;6.00;99.90;;;;;;5091885;28;20032;-64
2021/04/05 08:00:35;;;;;;;1.15;0.60;;;6.30;99.90;;;;;;5029426;28;20029;-65
2021/04/05 08:03:19;;;;;;;1.00;0.60;;;6.50;99.90;;;;;;5029464;28;20381;-65
2021/04/05 08:05:59;;;;;;;1.08;0.63;;;6.50;99.90;;;;;;5074992;28;21257;-65
2021/04/05 08:08:28;;;;;;;;;;;6.70;99.90;;;;;;5091997;28;20510;-66
2021/04/05 08:11:08;;;;;;;0.57;0.52;;;6.90;99.90;;;;;;5091930;28;20027;-65
2021/04/05 08:13:42;;;;;;;0.98;0.52;;;7.10;99.90;;;;;;5091963;28;20024;-65
2021/04/05 08:16:07;;;;;;;0.73;0.60;;;7.20;99.90;;;;;;5091675;28;20047;-65
2021/04/05 08:18:40;;;;;;;2.72;2.17;;;7.10;99.90;;;;;;5092019;28;20540;-65
2021/04/05 08:21:35;;;;;;;1.58;0.80;;;7.10;99.90;;;;;;5071754;28;20040;-65
2021/04/05 08:24:32;;;;;;;0.93;0.70;;;7.00;99.90;;;;;;5069208;28;20040;-65
2021/04/05 08:27:24;;;;;;;1.23;0.55;;;6.80;99.90;;;;;;5072058;28;20431;-66
2021/04/05 08:30:01;;;;;;;0.40;0.40;;;6.50;99.90;;;;;;5072119;28;20025;-65
2021/04/05 08:32:57;;;;;;;0.60;0.60;;;6.40;99.90;;;;;;5071538;28;20418;-71
2021/04/05 08:35:45;;;;;;;0.80;0.57;;;6.00;98.10;;;;;;5071825;28;20111;-71
2021/04/05 08:38:28;;;;;;;1.45;0.60;;;5.30;99.90;;;;;;5071536;28;20029;-71
2021/04/05 08:41:31;;;;;;;2.20;0.80;;;4.80;99.90;;;;;;5071634;28;20036;-71
2021/04/05 08:44:19;;;;;;;0.60;0.60;;;4.60;99.90;;;;;;5071902;28;20024;-68
2021/04/05 08:46:48;;;;;;;1.23;0.70;;;4.60;99.90;;;;;;5079670;28;20020;-69
2021/04/05 08:49:19;;;;;;;1.25;0.70;;;4.40;99.90;;;;;;5095067;28;20031;-71
2021/04/05 08:51:50;;;;;;;;;;;4.10;99.90;;;;;;5092946;28;20663;-70
2021/04/05 08:54:23;;;;;;;0.70;0.55;;;4.00;99.90;;;;;;5095166;28;20371;-70
2021/04/05 08:57:02;;;;;;;0.60;0.43;;;3.80;99.90;;;;;;5093281;28;20050;-69
2021/04/05 08:59:40;;;;;;;0.50;0.50;;;3.80;99.90;;;;;;5092780;28;20028;-70
2021/04/05 09:02:21;;;;;;;0.40;0.40;;;3.70;99.90;;;;;;5092150;28;20494;-70
2021/04/05 09:04:55;;;;;;;0.82;0.60;;;4.30;99.90;;;;;;5092751;28;20020;-69
2021/04/05 09:07:29;;;;;;;1.42;0.70;;;4.20;99.90;;;;;;5092908;28;20074;-68
2021/04/05 09:09:58;;;;;;;0.50;0.50;;;4.00;99.90;;;;;;5093462;28;20008;-69
2021/04/05 09:12:26;;;;;;;1.23;0.80;;;3.90;99.90;;;;;;5093746;28;20024;-69
2021/04/05 09:15:15;;;;;;;0.68;0.68;;;3.80;99.90;;;;;;5094535;28;20048;-70
2021/04/05 09:18:04;;;;;;;0.40;0.40;;;3.70;99.90;;;;;;5093212;28;20034;-69
2021/04/05 09:20:32;;;;;;;0.50;0.50;;;3.70;99.90;;;;;;5064593;28;20079;-69
2021/04/05 09:23:03;;;;;;;0.77;0.50;;;3.70;99.90;;;;;;5095013;28;20036;-68
2021/04/05 09:25:47;;;;;;;1.58;0.50;;;3.70;99.90;;;;;;5095177;28;20101;-69
2021/04/05 09:28:50;;;;;;;2.10;0.60;;;3.50;99.90;;;;;;5094892;28;20020;-68
2021/04/05 09:31:55;;;;;;;8.20;3.00;;;3.50;99.90;;;;;;5094860;28;20479;-68
2021/04/05 09:34:58;;;;;;;0.50;0.50;;;3.60;99.90;;;;;;5076682;28;20024;-65
2021/04/05 09:37:49;;;;;;;1.23;0.60;;;3.50;99.90;;;;;;5094855;28;20506;-67
2021/04/05 09:40:49;;;;;;;0.40;0.40;;;3.50;99.90;;;;;;5094304;28;20089;-65
2021/04/05 09:43:59;;;;;;;2.65;0.70;;;3.50;99.90;;;;;;5094631;28;20039;-66
2021/04/05 09:46:43;;;;;;;0.40;0.40;;;3.60;99.90;;;;;;5031982;28;20029;-66
2021/04/05 09:49:23;;;;;;;2.20;0.60;;;3.70;99.90;;;;;;5092845;28;20040;-66
2021/04/05 09:51:51;;;;;;;0.50;0.50;;;3.80;99.90;;;;;;5094446;28;20028;-66
2021/04/05 09:54:39;;;;;;;1.58;0.50;;;3.80;99.90;;;;;;5094667;28;20032;-66
2021/04/05 09:57:53;;;;;;;0.90;0.50;;;3.90;99.90;;;;;;5093374;28;20052;-66
2021/04/05 10:00:21;;;;;;;0.50;0.50;;;3.90;99.90;;;;;;5031664;28;20034;-64
2021/04/05 10:02:54;;;;;;;1.02;0.60;;;4.00;99.90;;;;;;5031361;28;20048;-67
2021/04/05 10:05:23;;;;;;;1.48;0.60;;;4.10;99.90;;;;;;5064144;28;20024;-67
2021/04/05 10:07:51;;;;;;;1.70;0.60;;;4.10;99.90;;;;;;5093358;28;20063;-65
2021/04/05 10:10:19;;;;;;;0.68;0.52;;;4.20;99.90;;;;;;5093908;28;20024;-66
2021/04/05 10:12:47;;;;;;;1.10;0.50;;;4.30;99.90;;;;;;5094067;28;20020;-70
2021/04/05 10:15:19;;;;;;;0.55;0.55;;;4.40;99.90;;;;;;5092564;28;20147;-67
2021/04/05 10:18:10;;;;;;;0.47;0.43;;;4.50;99.90;;;;;;5091684;28;20020;-70
2021/04/05 10:20:36;;;;;;;0.50;0.50;;;4.60;99.90;;;;;;5091057;28;20020;-68
2021/04/05 10:23:07;;;;;;;1.25;0.57;;;4.60;99.90;;;;;;5093412;28;20032;-68
2021/04/05 10:25:34;;;;;;;1.63;0.75;;;4.60;99.90;;;;;;5092618;28;20024;-69
2021/04/05 10:28:03;;;;;;;0.52;0.52;;;4.70;99.90;;;;;;5092931;28;20546;-69
2021/04/05 10:30:39;;;;;;;0.63;0.60;;;4.70;99.90;;;;;;5092265;28;20479;-69
2021/04/05 10:33:16;;;;;;;2.78;0.93;;;4.80;99.90;;;;;;5073458;28;20388;-67
2021/04/05 10:35:47;;;;;;;1.60;0.60;;;4.80;99.90;;;;;;5073566;28;20025;-72
2021/04/05 10:38:16;;;;;;;2.38;1.00;;;4.90;99.90;;;;;;5073608;28;20081;-72
2021/04/05 10:40:42;;;;;;;2.00;0.80;;;4.90;99.90;;;;;;5074110;28;20056;-70
2021/04/05 10:43:20;;;;;;;1.60;0.80;;;4.90;99.90;;;;;;5093107;28;20115;-70
2021/04/05 10:45:54;;;;;;;1.88;0.70;;;4.90;99.90;;;;;;5093322;28;20027;-70
2021/04/05 10:48:49;;;;;;;2.35;0.70;;;4.90;99.90;;;;;;5093425;28;20486;-69
2021/04/05 10:51:27;;;;;;;1.42;0.52;;;5.00;99.90;;;;;;5091017;28;20035;-71
2021/04/05 10:54:02;;;;;;;0.75;0.60;;;5.00;97.50;;;;;;5091780;28;20031;-72
2021/04/05 10:56:32;;;;;;;0.75;0.50;;;5.00;96.00;;;;;;5092410;28;20039;-72
2021/04/05 10:59:12;;;;;;;0.52;0.52;;;4.90;95.50;;;;;;5093378;28;20476;-72
2021/04/05 11:01:47;;;;;;;0.50;0.50;;;4.90;94.50;;;;;;5093353;28;20063;-70
2021/04/05 11:04:14;;;;;;;1.27;0.60;;;4.90;93.70;;;;;;5093121;28;20077;-74
2021/04/05 11:06:41;;;;;;;0.40;0.40;;;4.80;94.90;;;;;;5092950;28;20498;-71
2021/04/05 11:09:08;;;;;;;0.80;0.70;;;4.90;95.80;;;;;;5093030;28;20027;-72
2021/04/05 11:11:37;;;;;;;0.63;0.60;;;5.00;94.20;;;;;;5092830;28;20024;-72
2021/04/05 11:14:07;;;;;;;0.65;0.43;;;5.00;93.90;;;;;;5092692;28;20020;-72
2021/04/05 11:16:34;;;;;;;0.90;0.60;;;5.00;92.90;;;;;;5092598;28;20048;-72
2021/04/05 11:19:03;;;;;;;0.68;0.68;;;5.10;93.50;;;;;;5093192;28;20054;-72
2021/04/05 11:21:43;;;;;;;2.22;0.50;;;5.10;90.60;;;;;;5092706;28;20051;-72
2021/04/05 11:24:12;;;;;;;0.40;0.40;;;5.10;90.00;;;;;;5092786;28;20032;-71
2021/04/05 11:26:41;;;;;;;1.50;0.60;;;5.10;90.50;;;;;;5097188;28;20035;-68
2021/04/05 11:29:13;;;;;;;1.75;0.70;;;5.10;90.40;;;;;;5091464;28;20028;-66
2021/04/05 11:31:44;;;;;;;1.95;0.40;;;5.20;95.20;;;;;;5092397;28;20030;-68
2021/04/05 11:34:13;;;;;;;3.38;0.50;;;5.50;91.10;;;;;;5092489;28;20504;-69
2021/04/05 11:36:48;;;;;;;1.25;0.50;;;5.60;91.10;;;;;;5090884;28;20036;-66
2021/04/05 11:39:19;;;;;;;0.70;0.45;;;7.00;99.90;;;;;;5092403;28;20024;-70
2021/04/05 11:41:53;;;;;;;0.65;0.55;;;7.30;85.90;;;;;;5092380;28;20040;-70
2021/04/05 11:44:34;;;;;;;2.58;0.50;;;6.80;81.40;;;;;;5091171;28;20038;-70
2021/04/05 11:47:01;;;;;;;0.40;0.40;;;6.40;81.10;;;;;;5092508;28;20514;-69
2021/04/05 11:49:33;;;;;;;0.40;0.40;;;6.20;82.10;;;;;;5092277;28;20020;-70
2021/04/05 11:52:19;;;;;;;0.30;0.30;;;6.00;81.20;;;;;;5092343;28;20028;-70
2021/04/05 11:55:02;;;;;;;0.70;0.50;;;5.90;79.30;;;;;;5074293;28;20082;-70
2021/04/05 11:57:38;;;;;;;0.70;0.70;;;5.90;81.10;;;;;;5092100;28;20501;-70
2021/04/05 12:00:11;;;;;;;1.13;0.50;;;5.80;80.70;;;;;;5092278;28;20030;-70
2021/04/05 12:02:45;;;;;;;1.58;0.70;;;5.70;78.80;;;;;;5092240;28;20415;-70
2021/04/05 12:05:38;;;;;;;1.40;0.63;;;5.70;77.60;;;;;;5092403;28;20016;-70
2021/04/05 12:08:20;;;;;;;1.63;0.57;;;5.60;77.50;;;;;;5091635;28;20043;-69
2021/04/05 12:10:49;;;;;;;0.95;0.70;;;5.50;76.10;;;;;;5092256;28;20035;-69
2021/04/05 12:13:32;;;;;;;0.50;0.50;;;5.40;76.50;;;;;;5092379;28;20020;-70
2021/04/05 12:16:00;;;;;;;1.38;0.60;;;5.40;76.60;;;;;;5092013;28;20396;-70
2021/04/05 12:18:27;;;;;;;2.60;1.90;;;5.50;76.00;;;;;;5092427;28;20016;-66
2021/04/05 12:21:13;;;;;;;3.10;0.60;;;5.50;81.80;;;;;;5098354;28;20110;-70
2021/04/05 12:23:43;;;;;;;0.95;0.60;;;6.60;78.90;;;;;;5098647;28;20542;-70
2021/04/05 12:26:10;;;;;;;0.40;0.40;;;6.30;73.90;;;;;;5098818;28;20020;-70
2021/04/05 12:28:40;;;;;;;0.50;0.50;;;6.00;73.00;;;;;;5098901;28;20437;-70
2021/04/05 12:31:08;;;;;;;1.90;0.70;;;5.70;71.90;;;;;;5099736;28;20024;-71
2021/04/05 12:33:35;;;;;;;0.60;0.50;;;5.50;72.00;;;;;;5097856;28;20376;-70
2021/04/05 12:36:03;;;;;;;0.50;0.50;;;5.50;72.20;;;;;;5098345;28;20032;-71
2021/04/05 12:38:32;;;;;;;1.75;0.40;;;5.50;72.70;;;;;;5098824;28;20477;-71
2021/04/05 12:40:59;;;;;;;0.40;0.40;;;5.50;71.40;;;;;;5098510;28;20384;-71
2021/04/05 12:43:28;;;;;;;1.80;0.70;;;5.40;69.80;;;;;;5098796;28;20043;-71
2021/04/05 12:45:56;;;;;;;0.82;0.60;;;5.50;70.90;;;;;;5098179;28;20111;-71
2021/04/05 12:48:26;;;;;;;0.57;0.47;;;5.50;69.90;;;;;;5098346;28;20024;-69
2021/04/05 12:51:01;;;;;;;1.75;0.68;;;5.50;69.40;;;;;;5098468;28;20031;-70
2021/04/05 12:53:30;;;;;;;2.33;0.73;;;5.50;68.00;;;;;;5098487;28;20024;-70
2021/04/05 12:55:59;;;;;;;1.80;0.60;;;5.50;68.10;;;;;;5098708;28;20039;-71
2021/04/05 12:58:29;;;;;;;0.57;0.40;;;5.60;68.10;;;;;;5098389;28;20012;-72
2021/04/05 13:00:56;;;;;;;2.63;0.70;;;5.60;67.80;;;;;;5098668;28;20028;-70
2021/04/05 13:03:42;;;;;;;1.67;0.50;;;5.60;66.40;;;;;;5097971;28;20399;-70
2021/04/05 13:06:11;;;;;;;1.42;0.55;;;5.60;65.70;;;;;;5095588;28;20085;-70
2021/04/05 13:09:06;;;;;;;1.92;0.68;;;5.60;65.60;;;;;;5095324;28;20034;-72
2021/04/05 13:11:38;;;;;;;1.20;0.60;;;5.50;65.50;;;;;;5098197;28;20464;-81
2021/04/05 13:14:13;;;;;;;0.73;0.52;;;5.50;65.40;;;;;;5098124;28;20056;-71
2021/04/05 13:16:59;;;;;;;0.50;0.50;;;5.50;66.10;;;;;;5098430;28;20406;-72
2021/04/05 13:19:36;;;;;;;1.55;0.60;;;5.50;66.00;;;;;;5098214;28;20472;-71
2021/04/05 13:22:03;;;;;;;4.53;2.35;;;5.50;65.90;;;;;;5098168;28;20044;-71
2021/04/05 13:24:35;;;;;;;1.65;0.52;;;5.60;65.10;;;;;;5098142;28;20077;-71
2021/04/05 13:27:03;;;;;;;1.33;0.50;;;5.60;65.30;;;;;;5098183;28;20020;-71
2021/04/05 13:29:34;;;;;;;5.40;1.00;;;5.60;63.90;;;;;;5098335;28;20036;-71
2021/04/05 13:32:03;;;;;;;1.45;0.70;;;5.60;63.70;;;;;;5094999;28;20032;-71
2021/04/05 13:34:35;;;;;;;1.35;0.52;;;5.60;63.10;;;;;;5094915;28;20020;-71
2021/04/05 13:37:15;;;;;;;1.35;0.60;;;5.60;62.20;;;;;;5095133;28;20063;-71
2021/04/05 13:39:44;;;;;;;1.67;0.60;;;5.50;61.60;;;;;;5094916;28;20025;-71
2021/04/05 13:42:15;;;;;;;1.55;0.50;;;5.50;62.70;;;;;;5094895;28;20129;-71
2021/04/05 13:44:44;;;;;;;2.97;0.70;;;5.50;61.80;;;;;;5094918;28;20031;-71
2021/04/05 13:47:11;;;;;;;1.73;0.60;;;5.50;60.70;;;;;;5094690;28;20020;-71
2021/04/05 13:49:54;;;;;;;0.60;0.60;;;5.50;61.20;;;;;;5094795;28;20020;-71
2021/04/05 13:52:21;;;;;;;1.92;0.70;;;5.40;61.00;;;;;;5094417;28;20111;-71
2021/04/05 13:54:53;;;;;;;1.35;0.60;;;5.40;61.00;;;;;;5094892;28;20074;-72
2021/04/05 13:57:21;;;;;;;1.35;0.60;;;5.40;60.60;;;;;;5094721;28;20048;-72
2021/04/05 14:00:07;;;;;;;1.33;0.75;;;5.40;60.60;;;;;;5094440;28;20028;-72
2021/04/05 14:02:40;;;;;;;2.10;0.70;;;5.40;60.00;;;;;;5094513;28;20039;-71
2021/04/05 14:05:15;;;;;;;0.75;0.52;;;5.40;59.90;;;;;;5094452;28;20059;-72
2021/04/05 14:07:42;;;;;;;2.03;0.68;;;5.40;59.70;;;;;;5094084;28;20052;-70
2021/04/05 14:10:09;;;;;;;2.95;0.68;;;5.50;59.90;;;;;;5094300;28;20031;-71
2021/04/05 14:12:40;;;;;;;1.00;0.50;;;5.50;59.70;;;;;;5093981;28;20532;-70
2021/04/05 14:15:06;;;;;;;;;;;5.50;59.50;;;;;;5094507;28;20089;-71
2021/04/05 14:17:36;;;;;;;0.80;0.65;;;5.60;58.40;;;;;;5093967;28;19904;-71
2021/04/05 14:20:05;;;;;;;2.00;0.63;;;5.60;59.00;;;;;;5094165;28;20016;-71
2021/04/05 14:22:39;;;;;;;2.13;0.82;;;5.70;59.30;;;;;;5093801;28;20403;-70
2021/04/05 14:25:26;;;;;;;4.22;0.80;;;5.70;59.10;;;;;;5094058;28;20376;-70
2021/04/05 14:28:05;;;;;;;4.63;0.70;;;5.80;58.20;;;;;;5093841;28;20034;-71
2021/04/05 14:30:42;;;;;;;4.10;0.93;;;5.80;58.40;;;;;;5093766;28;20016;-71
2021/04/05 14:33:26;;;;;;;4.43;1.10;;;5.80;58.40;;;;;;5093913;28;20361;-71
2021/04/05 14:36:00;;;;;;;1.02;0.70;;;5.80;57.30;;;;;;5093806;28;20026;-70
2021/04/05 14:38:29;;;;;;;3.00;0.80;;;5.80;57.10;;;;;;5093558;28;20028;-71
2021/04/05 14:41:06;;;;;;;4.00;0.85;;;5.80;57.40;;;;;;5093526;28;20028;-71
2021/04/05 14:43:37;;;;;;;3.47;0.80;;;5.80;57.20;;;;;;5092082;28;20085;-71
2021/04/05 14:46:06;;;;;;;2.97;1.00;;;5.90;56.60;;;;;;5093820;28;20024;-71
2021/04/05 14:48:34;;;;;;;5.22;0.98;;;5.90;56.50;;;;;;5093117;28;20028;-71
2021/04/05 14:51:02;;;;;;;4.10;0.90;;;5.80;56.50;;;;;;5093555;28;20533;-71
2021/04/05 14:53:39;;;;;;;3.40;1.02;;;5.80;57.00;;;;;;5093505;28;20032;-71
2021/04/05 14:56:12;;;;;;;2.42;0.82;;;5.90;56.90;;;;;;5093423;28;20024;-71
2021/04/05 14:58:39;;;;;;;3.78;0.95;;;5.90;56.90;;;;;;5093338;28;20118;-71
2021/04/05 15:01:18;;;;;;;3.38;0.90;;;5.80;56.70;;;;;;5093579;28;20422;-71
2021/04/05 15:04:19;;;;;;;2.83;0.80;;;5.90;56.90;;;;;;5093501;28;20126;-71
2021/04/05 15:06:57;;;;;;;4.82;0.77;;;5.90;56.80;;;;;;5049670;28;20028;-70
2021/04/05 15:09:31;;;;;;;3.75;0.77;;;5.90;57.10;;;;;;5093317;28;20435;-70
2021/04/05 15:12:06;;;;;;;4.07;0.90;;;5.80;56.80;;;;;;5093109;28;20102;-70
2021/04/05 15:14:37;;;;;;;4.93;0.98;;;5.80;57.10;;;;;;5092913;28;20048;-71
2021/04/05 15:17:08;;;;;;;7.57;0.90;;;5.80;57.10;;;;;;5092913;28;20028;-70
2021/04/05 15:19:36;;;;;;;1.60;0.70;;;5.80;57.00;;;;;;5075545;28;20020;-73
2021/04/05 15:22:06;;;;;;;1.83;0.70;;;5.80;57.30;;;;;;5092845;28;20036;-69
2021/04/05 15:24:34;;;;;;;3.88;1.10;;;5.80;57.10;;;;;;5093088;28;20020;-70
2021/04/05 15:27:07;;;;;;;4.07;1.20;;;5.80;56.80;;;;;;5092725;28;20020;-70
2021/04/05 15:29:35;;;;;;;7.13;1.17;;;6.60;75.30;;;;;;5092657;28;20016;-70
2021/04/05 15:32:08;;;;;;;4.28;0.95;;;6.90;58.80;;;;;;5092367;28;20028;-70
2021/04/05 15:34:35;;;;;;;2.67;0.88;;;6.60;56.40;;;;;;5092847;28;20023;-71
2021/04/05 15:37:15;;;;;;;2.53;0.90;;;6.40;56.30;;;;;;5092456;28;20577;-70
2021/04/05 15:39:50;;;;;;;2.78;0.75;;;6.20;56.00;;;;;;5092509;28;20024;-70
2021/04/05 15:42:21;;;;;;;1.70;0.77;;;6.10;55.80;;;;;;5092733;28;20043;-70
2021/04/05 15:45:03;;;;;;;4.50;1.00;;;6.00;55.50;;;;;;5092771;28;20039;-70
2021/04/05 15:47:43;;;;;;;3.53;0.80;;;5.90;55.50;;;;;;5092344;28;20503;-70
2021/04/05 15:50:26;;;;;;;1.85;0.57;;;5.90;55.60;;;;;;5092487;28;20032;-70
2021/04/05 15:52:56;;;;;;;3.13;0.80;;;5.90;55.60;;;;;;5092212;28;20070;-70
2021/04/05 15:55:34;;;;;;;2.13;0.80;;;5.90;55.50;;;;;;5091546;28;20032;-66
2021/04/05 15:58:05;;;;;;;0.60;0.50;;;7.90;95.70;;;;;;5092612;28;20444;-71
2021/04/05 16:00:37;;;;;;;3.72;1.08;;;9.20;65.40;;;;;;5092181;28;20020;-72
2021/04/05 16:03:06;;;;;;;5.40;0.80;;;9.00;58.80;;;;;;5092388;28;20032;-71
2021/04/05 16:05:42;;;;;;;2.47;0.70;;;8.30;54.50;;;;;;5074211;28;20024;-72
2021/04/05 16:08:19;;;;;;;3.55;0.80;;;7.60;53.50;;;;;;5091362;28;20032;-71
2021/04/05 16:11:06;;;;;;;4.30;0.90;;;7.20;54.40;;;;;;5090209;28;20027;-71
2021/04/05 16:13:37;;;;;;;2.42;0.73;;;6.80;53.30;;;;;;5091404;28;20028;-71
2021/04/05 16:16:06;;;;;;;2.67;1.23;;;6.60;53.70;;;;;;5092017;28;20130;-71
2021/04/05 16:18:40;;;;;;;4.50;0.90;;;6.40;54.20;;;;;;5091980;28;20028;-71
2021/04/05 16:21:14;;;;;;;2.00;0.70;;;6.40;55.50;;;;;;5092124;28;20028;-70
2021/04/05 16:23:50;;;;;;;4.40;0.65;;;6.30;54.60;;;;;;5091567;28;20020;-70
2021/04/05 16:26:19;;;;;;;2.88;0.65;;;6.30;54.80;;;;;;5091711;28;20067;-70
2021/04/05 16:28:49;;;;;;;1.48;0.55;;;6.20;54.80;;;;;;5091702;28;20145;-71
2021/04/05 16:31:31;;;;;;;7.95;0.93;;;6.10;54.20;;;;;;5089437;28;20070;-70
2021/04/05 16:34:02;;;;;;;7.38;1.13;;;6.00;54.70;;;;;;5086595;28;20032;-74
2021/04/05 16:36:34;;;;;;;2.72;0.60;;;6.00;54.80;;;;;;5091284;28;20012;-71
2021/04/05 16:39:07;;;;;;;8.65;1.00;;;6.00;54.90;;;;;;5091301;28;20025;-71
2021/04/05 16:41:52;;;;;;;5.93;1.30;;;5.90;55.10;;;;;;5091321;28;20036;-70
2021/04/05 16:44:26;;;;;;;3.40;0.85;;;5.90;55.40;;;;;;5090867;28;20016;-70
2021/04/05 16:46:59;;;;;;;3.28;0.70;;;5.90;55.40;;;;;;5091199;28;20016;-70
2021/04/05 16:49:36;;;;;;;3.45;0.80;;;5.80;55.40;;;;;;5088878;28;20012;-70
2021/04/05 16:52:08;;;;;;;7.00;1.10;;;5.80;55.50;;;;;;5091197;28;20548;-70
2021/04/05 16:55:00;;;;;;;9.25;1.73;;;5.80;55.50;;;;;;5091484;28;20153;-70
2021/04/05 16:57:42;;;;;;;5.38;1.63;;;5.80;56.00;;;;;;5089160;28;20024;-70
2021/04/05 17:00:23;;;;;;;6.53;1.65;;;5.80;56.40;;;;;;5089206;28;20108;-71
2021/04/05 17:02:56;;;;;;;7.03;1.52;;;5.80;56.90;;;;;;5088948;28;20028;-70
2021/04/05 17:05:33;;;;;;;13.05;1.65;;;5.90;57.20;;;;;;5092099;28;20012;-71
2021/04/05 17:08:11;;;;;;;4.07;1.85;;;5.90;56.80;;;;;;5094898;28;20036;-71
2021/04/05 17:11:22;;;;;;;10.55;2.45;;;5.80;56.60;;;;;;5094843;28;20023;-70
2021/04/05 17:14:16;;;;;;;4.90;1.00;;;5.80;57.20;;;;;;5091617;28;20032;-70
2021/04/05 17:16:57;;;;;;;4.95;1.00;;;5.80;57.40;;;;;;5080996;28;20102;-70
2021/04/05 17:19:25;;;;;;;;;;;5.80;57.50;;;;;;5095404;28;20100;-70
2021/04/05 17:21:51;;;;;;;21.38;1.77;;;5.80;57.30;;;;;;5094349;28;20413;-71
2021/04/05 17:24:22;;;;;;;23.05;1.52;;;5.70;58.00;;;;;;5094737;28;20028;-71
2021/04/05 17:26:52;;;;;;;13.40;1.30;;;5.60;56.80;;;;;;5092651;28;20024;-71
2021/04/05 17:29:31;;;;;;;9.38;0.90;;;5.50;56.70;;;;;;5094912;28;20028;-71
2021/04/05 17:32:16;;;;;;;2.70;0.70;;;5.50;57.00;;;;;;5094723;28;20062;-71
2021/04/05 17:34:56;;;;;;;4.28;0.70;;;5.50;57.70;;;;;;5094563;28;20067;-71
2021/04/05 17:37:49;;;;;;;5.00;0.77;;;5.50;57.80;;;;;;5094976;28;20021;-71
2021/04/05 17:40:16;;;;;;;8.70;1.25;;;5.50;58.20;;;;;;5095259;28;20043;-71
2021/04/05 17:42:51;;;;;;;4.53;0.95;;;5.50;58.70;;;;;;5094632;28;20038;-71
2021/04/05 17:45:23;;;;;;;3.70;0.70;;;5.50;58.10;;;;;;5094939;28;20024;-71
2021/04/05 17:48:08;;;;;;;9.38;1.08;;;5.40;58.10;;;;;;5094518;28;20488;-71
2021/04/05 17:51:04;;;;;;;10.45;1.08;;;5.40;58.10;;;;;;5079278;28;20499;-71
2021/04/05 17:53:51;;;;;;;2.78;0.90;;;5.40;58.50;;;;;;5068304;28;20040;-71
2021/04/05 17:56:45;;;;;;;1.27;0.65;;;5.30;58.20;;;;;;5093824;28;20054;-70
2021/04/05 17:59:36;;;;;;;7.93;0.93;;;5.20;58.70;;;;;;5093235;28;20024;-72
2021/04/05 18:02:08;;;;;;;1.25;1.00;;;5.20;58.90;;;;;;5091859;28;20491;-72